Time;durP1;ratioP1;P1;durP2;ratioP2;P2;SDS_P1;SDS_P2;PMS_P1;PMS_P2;Temp;Humidity;BMP_temperature;BMP_pressure;BME280_temperature;BME280_humidity;BME280_pressure;Samples;Min_cycle;Max_cycle;Signal;HPM_P1;HPM_P2
2021/04/18 00:02:01;;;;;;;2.58;2.10;;;11.50;78.20;;;;;;4981526;28;20042;-74
2021/04/18 00:04:29;;;;;;;3.75;2.10;;;11.40;78.50;;;;;;4989934;28;20129;-73
2021/04/18 00:06:57;;;;;;;3.78;2.28;;;11.40;78.70;;;;;;4977059;28;20508;-74
2021/04/18 00:09:24;;;;;;;3.83;2.40;;;11.40;78.70;;;;;;4961079;28;20042;-74
2021/04/18 00:11:52;;;;;;;2.60;2.40;;;11.30;78.80;;;;;;5001198;28;20136;-73
2021/04/18 00:14:19;;;;;;;3.35;2.20;;;11.30;79.10;;;;;;4981691;28;20042;-74
2021/04/18 00:16:47;;;;;;;4.15;2.50;;;11.30;79.10;;;;;;4979426;28;20044;-74
2021/04/18 00:19:16;;;;;;;4.30;2.20;;;11.30;78.80;;;;;;4981151;28;20046;-74
2021/04/18 00:21:44;;;;;;;3.42;2.15;;;11.20;79.10;;;;;;4999324;28;20357;-74
2021/04/18 00:24:12;;;;;;;3.38;2.22;;;11.30;79.10;;;;;;4994878;28;20110;-74
2021/04/18 00:26:39;;;;;;;2.58;2.20;;;11.30;78.80;;;;;;4978746;28;20069;-74
2021/04/18 00:29:07;;;;;;;2.58;2.30;;;11.30;79.10;;;;;;4980608;28;20042;-74
2021/04/18 00:31:35;;;;;;;2.45;2.08;;;11.30;78.80;;;;;;4981869;28;20157;-74
2021/04/18 00:34:03;;;;;;;2.58;1.92;;;11.20;79.10;;;;;;4983365;28;20046;-74
2021/04/18 00:36:32;;;;;;;3.25;1.58;;;11.10;79.30;;;;;;4974936;28;20047;-74
2021/04/18 00:38:59;;;;;;;3.47;2.15;;;11.10;79.40;;;;;;4983586;28;20049;-74
2021/04/18 00:41:27;;;;;;;2.95;2.03;;;11.10;79.60;;;;;;4990031;28;20142;-74
2021/04/18 00:43:55;;;;;;;2.95;2.10;;;11.10;79.30;;;;;;4978836;28;20096;-74
2021/04/18 00:46:22;;;;;;;2.83;2.13;;;11.10;79.50;;;;;;4984295;28;20447;-74
2021/04/18 00:48:50;;;;;;;3.05;2.10;;;11.10;79.70;;;;;;4966462;28;20585;-74
2021/04/18 00:51:18;;;;;;;3.03;2.10;;;11.00;79.70;;;;;;4960648;28;20049;-74
2021/04/18 00:53:46;;;;;;;3.78;2.10;;;10.90;80.40;;;;;;4982147;28;20228;-75
2021/04/18 00:56:14;;;;;;;2.78;2.10;;;10.90;80.40;;;;;;4962346;28;20049;-75
2021/04/18 00:58:42;;;;;;;3.15;2.30;;;10.90;80.20;;;;;;4999586;28;20033;-75
2021/04/18 01:01:10;;;;;;;2.95;2.38;;;10.90;80.30;;;;;;4980055;28;20038;-75
2021/04/18 01:03:39;;;;;;;2.83;2.20;;;10.90;80.30;;;;;;4981721;28;20582;-74
2021/04/18 01:06:08;;;;;;;2.88;1.95;;;10.80;80.50;;;;;;4969159;28;20038;-74
2021/04/18 01:08:47;;;;;;;3.50;2.45;;;10.70;80.80;;;;;;4999406;28;20435;-74
2021/04/18 01:11:15;;;;;;;4.55;2.10;;;10.70;81.40;;;;;;4981930;28;20073;-74
2021/04/18 01:13:43;;;;;;;2.65;1.70;;;10.60;82.10;;;;;;4997775;28;20045;-75
2021/04/18 01:16:11;;;;;;;3.35;2.25;;;10.60;82.70;;;;;;4967438;28;20050;-74
2021/04/18 01:18:40;;;;;;;4.20;2.50;;;10.50;82.90;;;;;;4981940;28;20235;-74
2021/04/18 01:21:10;;;;;;;2.97;2.08;;;10.50;82.80;;;;;;4983391;28;20112;-75
2021/04/18 01:23:52;;;;;;;2.50;2.17;;;10.40;82.80;;;;;;4999594;28;20519;-74
2021/04/18 01:26:23;;;;;;;4.10;2.22;;;10.30;83.00;;;;;;4999908;28;20042;-74
2021/04/18 01:28:55;;;;;;;2.33;2.05;;;10.30;83.10;;;;;;4999326;28;20526;-75
2021/04/18 01:31:22;;;;;;;3.55;2.05;;;10.30;83.30;;;;;;4983310;28;20077;-74
2021/04/18 01:33:51;;;;;;;2.92;2.03;;;10.20;83.30;;;;;;4973169;28;20575;-74
2021/04/18 01:36:22;;;;;;;3.88;2.47;;;10.20;83.50;;;;;;4980116;28;20050;-74
2021/04/18 01:38:50;;;;;;;4.28;2.08;;;10.20;83.50;;;;;;4985612;28;20049;-74
2021/04/18 01:41:18;;;;;;;3.35;2.22;;;10.10;83.50;;;;;;4981933;28;20123;-74
2021/04/18 01:43:46;;;;;;;3.65;2.10;;;10.10;83.80;;;;;;4980107;28;20125;-74
2021/04/18 01:46:14;;;;;;;2.67;1.98;;;10.10;83.80;;;;;;4982161;28;20057;-74
2021/04/18 01:48:43;;;;;;;3.67;2.30;;;10.10;83.80;;;;;;4982304;28;20137;-75
2021/04/18 01:51:10;;;;;;;2.72;2.13;;;10.10;83.90;;;;;;4983108;28;20510;-74
2021/04/18 01:53:41;;;;;;;2.63;1.98;;;10.10;83.80;;;;;;4989240;28;20042;-74
2021/04/18 01:56:10;;;;;;;2.42;2.20;;;9.90;84.30;;;;;;4980576;28;20050;-74
2021/04/18 01:58:38;;;;;;;2.80;2.38;;;9.80;84.60;;;;;;4980313;28;20124;-74
2021/04/18 02:01:28;;;;;;;2.42;2.08;;;9.70;85.00;;;;;;4983300;28;20046;-74
2021/04/18 02:03:58;;;;;;;2.67;2.10;;;9.70;85.60;;;;;;4985727;28;20666;-74
2021/04/18 02:06:27;;;;;;;2.58;2.30;;;9.60;86.00;;;;;;4969264;28;20143;-75
2021/04/18 02:09:06;;;;;;;2.67;2.20;;;9.60;86.00;;;;;;4969234;28;20787;-74
2021/04/18 02:11:37;;;;;;;3.85;2.40;;;9.70;85.80;;;;;;4969187;28;20330;-74
2021/04/18 02:14:09;;;;;;;3.15;2.35;;;9.70;85.30;;;;;;4983036;28;20498;-74
2021/04/18 02:17:01;;;;;;;2.83;2.08;;;9.70;85.20;;;;;;4966395;28;20449;-74
2021/04/18 02:19:30;;;;;;;3.90;2.40;;;9.70;85.00;;;;;;4986216;28;20594;-74
2021/04/18 02:21:58;;;;;;;2.90;2.45;;;9.70;85.00;;;;;;4969198;28;20050;-74
2021/04/18 02:24:28;;;;;;;2.55;2.08;;;9.70;85.20;;;;;;4985826;28;20042;-74
2021/04/18 02:26:56;;;;;;;2.90;2.00;;;9.60;85.30;;;;;;4971087;28;20046;-74
2021/04/18 02:29:33;;;;;;;2.58;1.90;;;9.50;85.50;;;;;;4982335;28;20419;-74
2021/04/18 02:32:08;;;;;;;3.63;2.13;;;9.50;85.60;;;;;;5000172;28;20038;-74
2021/04/18 02:34:44;;;;;;;2.38;1.92;;;9.50;85.70;;;;;;4966249;28;20492;-74
2021/04/18 02:37:12;;;;;;;3.28;2.20;;;9.50;86.00;;;;;;4994205;28;20041;-74
2021/04/18 02:39:41;;;;;;;3.45;2.63;;;9.50;86.00;;;;;;4985443;28;20454;-74
2021/04/18 02:42:10;;;;;;;3.00;2.13;;;9.60;85.80;;;;;;4979769;28;20129;-73
2021/04/18 02:44:38;;;;;;;3.47;2.42;;;9.60;85.70;;;;;;4979213;28;20530;-74
2021/04/18 02:47:07;;;;;;;3.63;2.65;;;9.60;86.00;;;;;;4983887;28;20054;-74
2021/04/18 02:49:40;;;;;;;2.95;2.60;;;9.40;86.30;;;;;;4967395;28;20300;-73
2021/04/18 02:52:08;;;;;;;3.50;2.45;;;9.50;86.10;;;;;;4992007;28;20135;-74
2021/04/18 02:54:37;;;;;;;3.00;2.22;;;9.50;85.80;;;;;;4981171;28;20424;-73
2021/04/18 02:57:08;;;;;;;3.03;2.50;;;9.40;86.10;;;;;;4982415;28;20065;-74
2021/04/18 02:59:37;;;;;;;2.67;2.38;;;9.50;86.10;;;;;;4999456;28;20120;-74
2021/04/18 03:02:05;;;;;;;4.00;2.45;;;9.50;85.90;;;;;;4983382;28;20496;-74
2021/04/18 03:04:37;;;;;;;3.38;2.00;;;9.50;86.00;;;;;;4983008;28;20044;-74
2021/04/18 03:07:05;;;;;;;2.75;2.00;;;9.30;86.30;;;;;;4983346;28;20045;-74
2021/04/18 03:09:34;;;;;;;2.55;2.20;;;9.30;86.60;;;;;;4982379;28;20483;-74
2021/04/18 03:12:02;;;;;;;2.40;1.88;;;9.30;86.60;;;;;;4973870;28;20408;-74
2021/04/18 03:14:38;;;;;;;2.80;1.90;;;9.30;86.70;;;;;;4975850;28;20575;-75
2021/04/18 03:17:10;;;;;;;3.20;2.13;;;9.20;86.50;;;;;;4967566;28;20038;-74
2021/04/18 03:19:45;;;;;;;2.90;1.93;;;9.20;86.80;;;;;;4988632;28;20133;-74
2021/04/18 03:22:14;;;;;;;3.03;2.05;;;9.30;86.70;;;;;;4962688;28;20072;-74
2021/04/18 03:24:42;;;;;;;2.40;2.17;;;9.30;86.50;;;;;;4983686;28;20416;-74
2021/04/18 03:27:11;;;;;;;2.40;1.77;;;9.20;86.60;;;;;;4980955;28;20050;-75
2021/04/18 03:29:46;;;;;;;3.42;2.17;;;9.10;86.70;;;;;;4997571;28;20048;-74
2021/04/18 03:32:14;;;;;;;2.40;1.80;;;9.10;86.90;;;;;;4979856;28;20050;-74
2021/04/18 03:34:44;;;;;;;2.47;1.80;;;9.10;86.70;;;;;;4967455;28;20076;-74
2021/04/18 03:37:14;;;;;;;2.63;1.83;;;9.10;86.90;;;;;;4965088;28;20050;-74
2021/04/18 03:39:42;;;;;;;2.35;1.95;;;9.20;86.80;;;;;;4992409;28;20046;-75
2021/04/18 03:42:10;;;;;;;2.70;2.00;;;9.20;86.80;;;;;;4982125;28;20034;-74
2021/04/18 03:44:40;;;;;;;2.28;1.88;;;9.20;86.60;;;;;;4979701;28;20289;-74
2021/04/18 03:47:10;;;;;;;3.53;2.10;;;9.10;86.80;;;;;;4981992;28;20046;-74
2021/04/18 03:49:49;;;;;;;2.58;1.95;;;9.10;86.80;;;;;;4964864;28;20389;-75
2021/04/18 03:52:23;;;;;;;2.72;2.03;;;9.20;86.70;;;;;;4965458;28;20046;-75
2021/04/18 03:54:51;;;;;;;3.00;2.10;;;9.20;87.00;;;;;;4980280;28;20104;-76
2021/04/18 03:57:19;;;;;;;2.67;1.85;;;9.10;88.10;;;;;;4998038;28;20053;-76
2021/04/18 03:59:47;;;;;;;4.10;1.83;;;9.00;88.90;;;;;;4977839;28;20054;-76
2021/04/18 04:02:16;;;;;;;3.33;2.00;;;9.00;89.00;;;;;;4981532;28;20060;-76
2021/04/18 04:04:45;;;;;;;2.30;2.00;;;9.00;88.90;;;;;;4995371;28;20053;-76
2021/04/18 04:07:17;;;;;;;2.97;1.70;;;9.00;88.80;;;;;;4980600;28;20046;-77
2021/04/18 04:09:45;;;;;;;3.30;2.10;;;9.00;88.70;;;;;;4975631;28;20560;-77
2021/04/18 04:12:13;;;;;;;4.13;2.40;;;9.00;88.60;;;;;;4978268;28;20042;-77
2021/04/18 04:14:45;;;;;;;4.25;1.95;;;8.90;88.40;;;;;;4991288;28;20053;-76
2021/04/18 04:17:13;;;;;;;3.88;2.05;;;9.00;88.60;;;;;;4984084;28;20041;-76
2021/04/18 04:20:04;;;;;;;2.55;2.00;;;9.00;88.20;;;;;;4979534;28;20049;-76
2021/04/18 04:22:43;;;;;;;2.30;1.85;;;8.80;88.60;;;;;;4962738;28;20626;-76
2021/04/18 04:25:19;;;;;;;2.72;1.92;;;8.70;89.10;;;;;;4999407;28;20037;-77
2021/04/18 04:27:46;;;;;;;2.88;2.33;;;8.70;89.60;;;;;;4980114;28;20119;-76
2021/04/18 04:30:15;;;;;;;3.95;2.25;;;8.60;90.20;;;;;;4981560;28;20502;-76
2021/04/18 04:32:43;;;;;;;3.53;2.00;;;8.50;90.90;;;;;;4999081;28;20041;-76
2021/04/18 04:35:13;;;;;;;2.80;2.15;;;8.50;91.20;;;;;;4978265;28;20042;-76
2021/04/18 04:37:41;;;;;;;2.50;1.90;;;8.60;90.90;;;;;;4962660;28;20042;-76
2021/04/18 04:40:10;;;;;;;3.22;2.38;;;8.70;90.00;;;;;;4973434;28;20343;-76
2021/04/18 04:42:38;;;;;;;2.30;2.05;;;8.60;89.80;;;;;;4990390;28;20042;-76
2021/04/18 04:45:06;;;;;;;3.63;2.30;;;8.60;89.90;;;;;;4983162;28;20053;-76
2021/04/18 04:47:34;;;;;;;3.15;2.00;;;8.70;89.70;;;;;;4973027;28;20038;-76
2021/04/18 04:50:03;;;;;;;2.90;2.15;;;8.70;89.30;;;;;;4995745;28;20480;-76
2021/04/18 04:52:32;;;;;;;3.00;2.00;;;8.70;89.20;;;;;;4980252;28;20042;-76
2021/04/18 04:54:59;;;;;;;4.05;2.03;;;8.80;89.10;;;;;;4994034;28;20116;-76
2021/04/18 04:57:27;;;;;;;3.58;2.53;;;8.80;88.90;;;;;;4982469;28;20471;-77
2021/04/18 04:59:55;;;;;;;2.78;2.10;;;8.70;89.20;;;;;;4997304;28;20054;-75
2021/04/18 05:02:23;;;;;;;4.72;2.40;;;8.70;89.10;;;;;;4988749;28;20038;-76
2021/04/18 05:04:51;;;;;;;2.50;2.00;;;8.80;89.10;;;;;;4979867;28;20082;-75
2021/04/18 05:07:19;;;;;;;3.25;2.40;;;8.80;88.90;;;;;;4972378;28;20039;-75
2021/04/18 05:09:48;;;;;;;4.40;2.47;;;8.80;88.80;;;;;;4981634;28;20053;-75
2021/04/18 05:12:16;;;;;;;2.90;2.00;;;8.80;88.70;;;;;;4961921;28;20054;-75
2021/04/18 05:14:43;;;;;;;2.72;2.22;;;8.70;89.20;;;;;;5000279;28;20408;-75
2021/04/18 05:17:11;;;;;;;4.18;2.20;;;8.60;89.20;;;;;;4995546;28;20041;-75
2021/04/18 05:19:39;;;;;;;3.05;2.17;;;8.70;89.40;;;;;;4978220;28;20043;-75
2021/04/18 05:22:07;;;;;;;2.75;2.00;;;8.80;89.20;;;;;;4977242;28;20053;-76
2021/04/18 05:24:35;;;;;;;2.00;1.80;;;8.80;89.20;;;;;;4993742;28;20049;-76
2021/04/18 05:27:04;;;;;;;3.17;2.13;;;8.80;89.20;;;;;;4978596;28;20050;-76
2021/04/18 05:29:32;;;;;;;6.32;2.42;;;8.80;89.20;;;;;;4975889;28;20452;-76
2021/04/18 05:32:00;;;;;;;3.65;2.25;;;8.80;89.50;;;;;;4989142;28;20056;-76
2021/04/18 05:34:28;;;;;;;2.95;2.60;;;8.80;89.60;;;;;;4968956;28;20073;-76
2021/04/18 05:36:56;;;;;;;3.95;2.90;;;8.80;89.60;;;;;;4984451;28;20046;-76
2021/04/18 05:39:24;;;;;;;3.38;2.63;;;8.90;89.50;;;;;;4985919;28;20045;-76
2021/04/18 05:41:51;;;;;;;4.75;3.10;;;8.90;89.70;;;;;;4978419;28;20157;-76
2021/04/18 05:44:20;;;;;;;6.38;3.35;;;8.90;89.80;;;;;;4999113;28;20038;-76
2021/04/18 05:46:48;;;;;;;3.40;2.78;;;8.90;89.90;;;;;;4978327;28;20892;-75
2021/04/18 05:49:16;;;;;;;5.40;4.07;;;9.00;89.80;;;;;;4981472;28;20065;-76
2021/04/18 05:51:44;;;;;;;5.90;4.07;;;9.00;90.00;;;;;;4981375;28;20045;-76
2021/04/18 05:54:12;;;;;;;6.63;4.47;;;9.10;90.00;;;;;;4982926;28;20148;-75
2021/04/18 05:56:40;;;;;;;6.85;4.95;;;9.20;89.70;;;;;;4976823;28;20066;-75
2021/04/18 05:59:08;;;;;;;6.68;4.40;;;9.10;89.90;;;;;;4985198;28;20133;-76
2021/04/18 06:01:36;;;;;;;6.15;5.00;;;9.10;89.90;;;;;;4984301;28;20392;-76
2021/04/18 06:04:05;;;;;;;6.18;4.75;;;9.20;89.90;;;;;;5000735;28;20103;-76
2021/04/18 06:06:33;;;;;;;8.02;4.97;;;9.10;90.10;;;;;;5000978;28;20472;-75
2021/04/18 06:09:01;;;;;;;6.50;4.30;;;9.00;90.40;;;;;;4978301;28;20050;-81
2021/04/18 06:11:29;;;;;;;6.22;4.90;;;9.20;90.30;;;;;;4983885;28;20051;-75
2021/04/18 06:13:57;;;;;;;7.22;4.90;;;9.20;90.40;;;;;;4987690;28;20034;-77
2021/04/18 06:16:25;;;;;;;6.47;4.60;;;9.50;90.00;;;;;;4986298;28;20049;-75
2021/04/18 06:18:54;;;;;;;7.60;5.10;;;9.60;89.80;;;;;;4984220;28;20034;-77
2021/04/18 06:21:22;;;;;;;7.53;4.85;;;9.60;89.60;;;;;;4970418;28;20053;-84
2021/04/18 06:23:50;;;;;;;6.25;4.78;;;9.70;89.20;;;;;;4984918;28;20475;-75
2021/04/18 06:26:17;;;;;;;6.25;4.70;;;9.70;89.20;;;;;;4997995;28;20056;-76
2021/04/18 06:28:45;;;;;;;4.70;3.90;;;9.90;89.30;;;;;;4965338;28;20061;-76
2021/04/18 06:31:13;;;;;;;5.25;4.40;;;9.90;89.60;;;;;;4985776;28;20073;-76
2021/04/18 06:33:41;;;;;;;6.53;4.57;;;9.90;90.10;;;;;;5000335;28;20104;-79
2021/04/18 06:36:11;;;;;;;6.30;4.72;;;10.00;90.00;;;;;;4981105;28;20038;-76
2021/04/18 06:38:38;;;;;;;6.45;5.40;;;10.10;90.00;;;;;;4964027;28;20074;-76
2021/04/18 06:41:09;;;;;;;8.07;5.80;;;10.20;89.60;;;;;;4979729;28;20043;-76
2021/04/18 06:43:38;;;;;;;6.30;5.00;;;10.30;89.30;;;;;;4990062;28;20361;-76
2021/04/18 06:46:07;;;;;;;7.20;5.13;;;10.30;89.30;;;;;;4964214;28;20145;-76
2021/04/18 06:48:37;;;;;;;6.45;4.65;;;10.40;88.80;;;;;;4997909;28;20085;-77
2021/04/18 06:51:06;;;;;;;7.55;5.35;;;10.20;89.00;;;;;;4994321;28;20046;-75
2021/04/18 06:53:35;;;;;;;6.07;4.82;;;10.30;89.70;;;;;;4961474;28;20050;-76
2021/04/18 06:56:05;;;;;;;6.07;4.63;;;10.40;89.20;;;;;;4982317;28;20069;-76
2021/04/18 06:58:34;;;;;;;8.60;5.35;;;10.60;88.90;;;;;;4966599;28;20403;-76
2021/04/18 07:01:02;;;;;;;7.75;5.25;;;10.70;88.70;;;;;;4998379;28;20432;-76
2021/04/18 07:03:30;;;;;;;6.25;5.18;;;10.70;88.70;;;;;;4996864;28;20864;-76
2021/04/18 07:05:59;;;;;;;7.50;5.45;;;10.90;88.40;;;;;;4998409;28;20104;-76
2021/04/18 07:08:29;;;;;;;6.38;5.07;;;11.00;88.40;;;;;;4977646;28;20045;-76
2021/04/18 07:11:13;;;;;;;6.63;4.90;;;11.10;88.30;;;;;;4993841;28;20049;-76
2021/04/18 07:13:43;;;;;;;6.25;4.80;;;11.10;87.90;;;;;;4980607;28;20049;-75
2021/04/18 07:16:24;;;;;;;6.28;4.22;;;11.20;87.90;;;;;;4989614;28;20455;-76
2021/04/18 07:18:54;;;;;;;6.00;4.47;;;11.30;87.30;;;;;;4981512;28;20473;-76
2021/04/18 07:21:22;;;;;;;7.15;4.45;;;11.40;87.20;;;;;;4995581;28;20459;-77
2021/04/18 07:24:05;;;;;;;7.20;4.35;;;11.50;87.20;;;;;;4996881;28;20132;-76
2021/04/18 07:26:34;;;;;;;7.78;5.20;;;11.70;87.10;;;;;;4981771;28;20053;-77
2021/04/18 07:29:13;;;;;;;6.53;5.32;;;11.80;86.60;;;;;;4976068;28;20567;-76
2021/04/18 07:31:42;;;;;;;5.50;4.75;;;11.90;86.60;;;;;;4978575;28;20049;-75
2021/04/18 07:34:15;;;;;;;5.90;4.35;;;12.00;86.00;;;;;;4997868;28;20091;-75
2021/04/18 07:36:45;;;;;;;5.88;4.47;;;12.10;85.10;;;;;;4985870;28;20050;-75
2021/04/18 07:39:15;;;;;;;5.82;3.83;;;12.30;85.40;;;;;;4980263;28;20037;-76
2021/04/18 07:41:46;;;;;;;4.72;3.60;;;12.40;84.30;;;;;;4997271;28;20046;-76
2021/04/18 07:44:16;;;;;;;4.50;3.40;;;12.50;82.90;;;;;;4975279;28;20073;-76
2021/04/18 07:46:47;;;;;;;4.18;3.50;;;12.70;82.70;;;;;;4982291;28;20234;-77
2021/04/18 07:49:16;;;;;;;6.30;3.45;;;12.80;81.60;;;;;;4973669;28;20057;-77
2021/04/18 07:51:46;;;;;;;5.13;4.20;;;13.00;81.30;;;;;;4979256;28;20424;-76
2021/04/18 07:54:16;;;;;;;3.15;2.85;;;13.10;80.20;;;;;;4979619;28;20090;-76
2021/04/18 07:56:46;;;;;;;4.50;3.67;;;13.20;80.20;;;;;;4975409;28;20118;-75
2021/04/18 07:59:15;;;;;;;5.35;4.00;;;13.40;79.60;;;;;;4975337;28;20058;-76
2021/04/18 08:01:43;;;;;;;6.68;4.72;;;13.50;79.10;;;;;;4978909;28;20042;-77
2021/04/18 08:04:12;;;;;;;4.32;3.58;;;13.50;78.40;;;;;;4979216;28;20392;-77
2021/04/18 08:06:41;;;;;;;4.88;3.67;;;13.60;79.10;;;;;;4997350;28;20141;-77
2021/04/18 08:09:16;;;;;;;4.65;3.40;;;13.80;78.50;;;;;;4973805;28;20053;-77
2021/04/18 08:12:07;;;;;;;5.40;3.45;;;13.90;78.50;;;;;;4999466;28;20038;-76
2021/04/18 08:14:36;;;;;;;3.90;3.22;;;14.00;78.30;;;;;;4960296;28;20050;-77
2021/04/18 08:17:07;;;;;;;4.45;3.58;;;14.00;77.70;;;;;;4995632;28;20050;-77
2021/04/18 08:19:35;;;;;;;4.38;3.20;;;14.00;77.50;;;;;;4980190;28;20412;-76
2021/04/18 08:22:04;;;;;;;4.90;4.00;;;14.10;77.50;;;;;;4979333;28;20042;-77
2021/04/18 08:24:35;;;;;;;3.88;3.33;;;14.10;77.10;;;;;;4981492;28;20119;-76
2021/04/18 08:27:06;;;;;;;6.68;4.35;;;14.10;77.50;;;;;;4981599;28;20037;-76
2021/04/18 08:29:55;;;;;;;6.22;4.78;;;14.20;77.50;;;;;;4966900;28;20479;-76
2021/04/18 08:32:41;;;;;;;4.30;3.50;;;14.30;77.70;;;;;;4969298;28;20045;-76
2021/04/18 08:35:14;;;;;;;4.20;3.50;;;14.30;76.60;;;;;;4976417;28;20041;-74
2021/04/18 08:37:42;;;;;;;4.53;3.55;;;14.30;76.50;;;;;;4991688;28;20521;-75
2021/04/18 08:40:10;;;;;;;4.47;3.65;;;14.30;77.00;;;;;;4968252;28;20050;-76
2021/04/18 08:42:40;;;;;;;5.97;4.85;;;14.50;76.00;;;;;;4990145;28;20053;-77
2021/04/18 08:45:10;;;;;;;6.32;4.13;;;14.60;75.70;;;;;;4980922;28;20053;-76
2021/04/18 08:47:40;;;;;;;4.88;3.78;;;14.70;76.70;;;;;;4973351;28;20448;-78
2021/04/18 08:50:20;;;;;;;5.40;3.35;;;14.70;75.40;;;;;;4988273;28;20136;-77
2021/04/18 08:52:48;;;;;;;4.93;3.80;;;14.80;74.60;;;;;;4970521;28;20046;-75
2021/04/18 08:55:16;;;;;;;4.82;3.92;;;14.90;75.10;;;;;;4985502;28;20577;-77
2021/04/18 08:57:44;;;;;;;7.97;7.07;;;14.90;74.90;;;;;;4993893;28;20073;-74
2021/04/18 09:00:15;;;;;;;5.47;3.90;;;15.00;74.70;;;;;;4973187;28;20070;-77
2021/04/18 09:02:54;;;;;;;4.95;3.88;;;15.00;74.70;;;;;;4978467;28;20045;-75
2021/04/18 09:05:25;;;;;;;3.95;3.40;;;14.90;75.20;;;;;;4984922;28;20049;-76
2021/04/18 09:07:53;;;;;;;4.53;3.55;;;14.90;74.50;;;;;;4959550;28;20105;-75
2021/04/18 09:10:21;;;;;;;5.80;3.60;;;15.00;74.40;;;;;;4959030;28;20042;-76
2021/04/18 09:12:57;;;;;;;4.25;3.83;;;15.10;74.60;;;;;;4969995;28;20076;-76
2021/04/18 09:15:31;;;;;;;4.05;3.65;;;15.20;74.10;;;;;;4979859;28;20630;-76
2021/04/18 09:17:59;;;;;;;3.88;3.45;;;15.20;74.30;;;;;;4969375;28;20043;-76
2021/04/18 09:20:27;;;;;;;4.50;3.42;;;15.20;74.10;;;;;;4989898;28;20412;-77
2021/04/18 09:23:05;;;;;;;3.55;2.92;;;15.30;73.50;;;;;;4962307;28;20034;-76
2021/04/18 09:25:40;;;;;;;4.25;3.40;;;15.30;73.30;;;;;;4999851;28;20247;-76
2021/04/18 09:28:12;;;;;;;3.90;3.22;;;15.40;72.30;;;;;;4975339;28;20034;-79
2021/04/18 09:30:41;;;;;;;3.58;2.90;;;15.50;72.50;;;;;;4973020;28;20034;-76
2021/04/18 09:33:10;;;;;;;4.15;3.50;;;15.60;72.60;;;;;;4959080;28;20050;-76
2021/04/18 09:35:38;;;;;;;5.15;3.70;;;15.70;72.80;;;;;;4975962;28;20587;-75
2021/04/18 09:38:07;;;;;;;3.08;2.78;;;15.80;71.60;;;;;;4998817;28;20034;-76
2021/04/18 09:40:36;;;;;;;3.15;2.85;;;15.90;71.10;;;;;;4991986;28;20053;-75
2021/04/18 09:43:07;;;;;;;3.40;3.05;;;15.90;71.00;;;;;;4988018;28;20030;-78
2021/04/18 09:45:36;;;;;;;4.88;4.30;;;15.80;70.90;;;;;;4977875;28;20506;-74
2021/04/18 09:48:13;;;;;;;5.40;3.63;;;16.00;71.10;;;;;;4995361;28;20480;-75
2021/04/18 09:50:42;;;;;;;4.38;2.92;;;16.10;69.90;;;;;;4994055;28;20038;-76
2021/04/18 09:53:14;;;;;;;3.47;3.00;;;16.10;70.80;;;;;;4982034;28;20042;-75
2021/04/18 09:55:51;;;;;;;4.32;2.70;;;16.10;71.10;;;;;;4966987;28;20424;-74
2021/04/18 09:58:25;;;;;;;3.35;3.05;;;16.30;70.80;;;;;;4991671;28;20455;-77
2021/04/18 10:00:53;;;;;;;3.95;2.70;;;16.50;69.90;;;;;;4978654;28;20038;-75
2021/04/18 10:03:36;;;;;;;3.90;2.97;;;16.70;69.70;;;;;;4978459;28;20140;-75
2021/04/18 10:06:05;;;;;;;4.90;2.67;;;17.00;68.60;;;;;;4975659;28;20403;-76
2021/04/18 10:08:35;;;;;;;3.15;2.50;;;17.10;68.50;;;;;;4993925;28;20588;-75
2021/04/18 10:11:17;;;;;;;3.17;2.78;;;17.50;68.40;;;;;;4976577;28;20089;-75
2021/04/18 10:13:51;;;;;;;3.70;2.78;;;17.60;66.90;;;;;;4981200;28;20041;-75
2021/04/18 10:16:23;;;;;;;3.03;2.38;;;17.80;67.90;;;;;;4994908;28;20344;-73
2021/04/18 10:19:14;;;;;;;6.30;4.60;;;18.00;67.50;;;;;;4999664;28;20041;-75
2021/04/18 10:21:44;;;;;;;4.45;2.80;;;17.80;65.60;;;;;;4977047;28;20121;-75
2021/04/18 10:24:35;;;;;;;2.92;2.40;;;17.40;66.30;;;;;;4979224;28;20042;-74
2021/04/18 10:27:05;;;;;;;3.47;2.85;;;17.00;66.70;;;;;;4993188;28;20093;-75
2021/04/18 10:29:34;;;;;;;3.45;2.90;;;16.70;67.40;;;;;;4964825;28;20046;-75
2021/04/18 10:32:02;;;;;;;2.83;2.60;;;16.60;67.50;;;;;;5001671;28;20128;-76
2021/04/18 10:34:31;;;;;;;3.20;2.70;;;16.70;67.60;;;;;;4982691;28;20053;-77
2021/04/18 10:37:00;;;;;;;2.42;2.20;;;16.60;67.60;;;;;;4983333;28;20053;-75
2021/04/18 10:39:28;;;;;;;3.65;2.63;;;16.50;67.90;;;;;;4974774;28;20409;-75
2021/04/18 10:41:56;;;;;;;3.10;2.58;;;16.40;68.60;;;;;;5002729;28;20145;-76
2021/04/18 10:44:24;;;;;;;3.17;2.78;;;16.40;68.80;;;;;;4978907;28;20038;-75
2021/04/18 10:46:54;;;;;;;3.15;2.45;;;16.50;68.60;;;;;;4983230;28;20412;-75
2021/04/18 10:49:23;;;;;;;4.82;3.45;;;16.40;68.40;;;;;;4965226;28;20408;-74
2021/04/18 10:51:52;;;;;;;4.47;3.33;;;16.30;68.70;;;;;;4999540;28;20042;-75
2021/04/18 10:54:20;;;;;;;4.07;3.20;;;16.20;67.70;;;;;;4996753;28;20262;-76
2021/04/18 10:56:49;;;;;;;4.65;2.60;;;16.20;68.40;;;;;;4999463;28;20576;-76
2021/04/18 10:59:18;;;;;;;4.38;3.78;;;16.10;68.10;;;;;;4983174;28;20048;-77
2021/04/18 11:01:46;;;;;;;5.35;4.70;;;16.00;68.40;;;;;;4975829;28;20039;-77
2021/04/18 11:04:16;;;;;;;3.05;2.38;;;16.00;68.70;;;;;;4998635;28;20460;-77
2021/04/18 11:06:50;;;;;;;2.40;2.20;;;15.90;68.50;;;;;;4998442;28;20052;-78
2021/04/18 11:09:24;;;;;;;3.13;2.40;;;15.90;68.20;;;;;;4963779;28;20378;-78
2021/04/18 11:11:52;;;;;;;3.13;2.78;;;15.90;68.20;;;;;;4978619;28;20308;-76
2021/04/18 11:14:20;;;;;;;3.35;2.42;;;15.90;68.20;;;;;;4979093;28;20049;-77
2021/04/18 11:16:48;;;;;;;4.60;2.33;;;15.90;67.70;;;;;;4975000;28;20152;-77
2021/04/18 11:19:17;;;;;;;3.20;2.22;;;15.90;67.60;;;;;;4983998;28;20046;-76
2021/04/18 11:21:45;;;;;;;3.00;2.10;;;16.00;67.80;;;;;;4977127;28;20045;-75
2021/04/18 11:24:13;;;;;;;2.63;2.28;;;16.10;67.80;;;;;;4977364;28;20558;-76
2021/04/18 11:26:43;;;;;;;3.03;2.22;;;16.10;67.80;;;;;;4977504;28;20045;-75
2021/04/18 11:29:11;;;;;;;3.03;2.40;;;16.10;68.80;;;;;;4978334;28;20046;-76
2021/04/18 11:31:39;;;;;;;2.40;2.20;;;16.20;68.20;;;;;;4976636;28;20522;-76
2021/04/18 11:34:09;;;;;;;4.03;2.40;;;16.30;67.60;;;;;;4997149;28;20579;-75
2021/04/18 11:36:38;;;;;;;2.80;2.40;;;16.30;68.00;;;;;;4962179;28;20053;-75
2021/04/18 11:39:06;;;;;;;2.47;2.28;;;16.30;68.00;;;;;;4995742;28;20058;-79
2021/04/18 11:41:34;;;;;;;50.45;42.35;;;16.30;68.60;;;;;;4993711;28;20073;-76
2021/04/18 11:44:05;;;;;;;7.47;6.07;;;16.30;69.20;;;;;;4966021;28;20474;-76
2021/04/18 11:46:33;;;;;;;5.88;4.70;;;16.20;69.30;;;;;;4976257;28;20046;-77
2021/04/18 11:49:06;;;;;;;4.00;3.53;;;16.20;68.30;;;;;;4973190;28;20504;-74
2021/04/18 11:51:37;;;;;;;3.72;2.90;;;16.20;68.60;;;;;;4979032;28;20504;-76
2021/04/18 11:54:06;;;;;;;5.05;3.75;;;16.20;69.60;;;;;;4983497;28;20045;-77
2021/04/18 11:56:34;;;;;;;3.40;2.65;;;16.30;69.40;;;;;;4978700;28;20050;-76
2021/04/18 11:59:11;;;;;;;2.80;2.17;;;16.30;68.70;;;;;;4995737;28;20132;-77
2021/04/18 12:01:46;;;;;;;2.95;2.38;;;16.40;68.30;;;;;;4975929;28;20042;-76
2021/04/18 12:04:20;;;;;;;3.15;2.42;;;16.50;67.50;;;;;;4982819;28;20124;-76
2021/04/18 12:07:08;;;;;;;2.67;2.10;;;16.60;66.90;;;;;;4982371;28;20062;-76
2021/04/18 12:09:46;;;;;;;2.95;2.42;;;16.70;67.30;;;;;;4999847;28;20495;-77
2021/04/18 12:12:20;;;;;;;2.63;2.13;;;16.80;67.00;;;;;;4977841;28;20076;-76
2021/04/18 12:15:06;;;;;;;2.05;1.88;;;16.90;66.60;;;;;;4984593;28;20116;-76
2021/04/18 12:17:41;;;;;;;3.20;2.38;;;17.00;66.20;;;;;;4993297;28;20057;-75
2021/04/18 12:20:20;;;;;;;3.65;2.55;;;17.00;66.50;;;;;;4989544;28;20586;-76
2021/04/18 12:23:10;;;;;;;2.90;2.20;;;17.20;66.00;;;;;;4965250;28;20044;-76
2021/04/18 12:25:45;;;;;;;3.50;2.15;;;17.60;66.30;;;;;;4978342;28;20054;-75
2021/04/18 12:28:19;;;;;;;4.60;2.80;;;17.50;66.50;;;;;;4973761;28;20073;-75
2021/04/18 12:31:09;;;;;;;2.60;1.92;;;17.60;66.00;;;;;;4996526;28;20049;-74
2021/04/18 12:33:52;;;;;;;3.33;1.80;;;17.80;65.20;;;;;;4976274;28;20093;-74
2021/04/18 12:36:25;;;;;;;4.40;2.50;;;18.00;64.40;;;;;;4992292;28;20064;-76
2021/04/18 12:39:02;;;;;;;3.17;2.47;;;18.20;65.00;;;;;;4971975;28;20061;-77
2021/04/18 12:41:37;;;;;;;3.55;2.70;;;18.30;63.80;;;;;;4996435;28;20049;-77
2021/04/18 12:44:07;;;;;;;4.35;2.88;;;18.40;64.20;;;;;;4975107;28;20049;-78
2021/04/18 12:46:36;;;;;;;3.67;2.17;;;18.50;63.10;;;;;;4979583;28;20050;-78
2021/04/18 12:49:12;;;;;;;2.40;2.20;;;18.50;63.10;;;;;;4995989;28;20046;-79
2021/04/18 12:51:54;;;;;;;3.05;2.13;;;18.60;63.70;;;;;;4995305;28;20041;-79
2021/04/18 12:54:36;;;;;;;3.05;2.15;;;18.50;62.90;;;;;;4961646;28;20054;-77
2021/04/18 12:57:17;;;;;;;2.78;2.22;;;18.30;64.10;;;;;;4965800;28;20531;-78
2021/04/18 12:59:48;;;;;;;5.38;3.75;;;18.30;64.10;;;;;;4959889;28;20046;-80
2021/04/18 13:02:21;;;;;;;17.02;14.98;;;18.30;64.70;;;;;;4984747;28;20042;-75
2021/04/18 13:04:50;;;;;;;24.73;19.48;;;18.30;64.40;;;;;;4979248;28;20073;-78
2021/04/18 13:07:19;;;;;;;10.50;6.20;;;18.30;63.90;;;;;;4994227;28;20038;-76
2021/04/18 13:09:47;;;;;;;4.45;3.22;;;18.40;63.90;;;;;;4980252;28;20050;-76